createdAt,value
2022-12-25T00:00:46.733Z,13.48
2022-12-25T00:03:49.093Z,13.65
2022-12-25T00:06:51.404Z,13.20
2022-12-25T00:09:53.346Z,13.15
2022-12-25T00:12:55.304Z,12.55
2022-12-25T00:15:57.669Z,12.87
2022-12-25T00:19:01.301Z,12.57
2022-12-25T00:22:03.252Z,12.45
2022-12-25T00:25:05.810Z,13.98
2022-12-25T00:28:08.113Z,15.88
2022-12-25T00:31:11.347Z,16.50
2022-12-25T00:34:13.348Z,15.57
2022-12-25T00:37:16.355Z,15.37
2022-12-25T00:40:18.354Z,15.52
2022-12-25T00:43:20.491Z,13.90
2022-12-25T00:46:22.882Z,14.30
2022-12-25T00:49:24.920Z,13.68
2022-12-25T00:52:26.825Z,14.05
2022-12-25T00:55:28.786Z,12.23
2022-12-25T00:58:31.106Z,12.13
2022-12-25T01:01:33.235Z,13.00
2022-12-25T01:04:35.760Z,14.55
2022-12-25T01:07:37.735Z,19.03
2022-12-25T01:10:39.649Z,20.77
2022-12-25T01:13:42.199Z,20.90
2022-12-25T01:16:44.564Z,19.67
2022-12-25T01:19:47.283Z,19.10
2022-12-25T01:22:49.293Z,20.00
2022-12-25T01:25:51.403Z,20.88
2022-12-25T01:28:53.439Z,20.70
2022-12-25T01:31:55.490Z,19.10
2022-12-25T01:34:57.588Z,19.60
2022-12-25T01:38:00.337Z,19.40
2022-12-25T01:41:02.281Z,18.38
2022-12-25T01:44:04.738Z,17.63
2022-12-25T01:47:06.939Z,18.90
2022-12-25T01:50:09.206Z,17.77
2022-12-25T01:53:11.307Z,16.60
2022-12-25T01:56:13.799Z,16.85
2022-12-25T01:59:16.445Z,17.23
2022-12-25T02:02:18.968Z,16.63
2022-12-25T02:05:20.963Z,17.45
2022-12-25T02:08:23.389Z,19.13
2022-12-25T02:11:44.366Z,19.33
2022-12-25T02:14:46.698Z,20.58
2022-12-25T02:17:56.625Z,19.83
2022-12-25T02:21:16.585Z,22.02
2022-12-25T02:24:21.964Z,20.92
2022-12-25T02:27:46.833Z,20.42
2022-12-25T02:30:53.890Z,19.20
2022-12-25T02:34:04.175Z,18.58
2022-12-25T02:37:12.555Z,17.63
2022-12-25T02:40:17.389Z,17.80
2022-12-25T02:43:39.529Z,18.83
2022-12-25T02:47:00.437Z,18.33
2022-12-25T02:50:21.026Z,17.40
2022-12-25T02:53:41.733Z,17.55
2022-12-25T02:57:02.895Z,17.65
2022-12-25T03:00:24.361Z,18.00
2022-12-25T03:03:45.700Z,17.83
2022-12-25T03:07:03.084Z,16.95
2022-12-25T03:10:25.114Z,17.10
2022-12-25T03:13:28.277Z,16.03
2022-12-25T03:16:49.325Z,16.75
2022-12-25T03:20:09.680Z,16.65
2022-12-25T03:23:30.827Z,15.37
2022-12-25T03:26:51.683Z,14.90
2022-12-25T03:30:12.732Z,14.35
2022-12-25T03:33:43.176Z,14.70
2022-12-25T03:37:09.666Z,15.60
2022-12-25T03:40:40.700Z,16.50
2022-12-25T03:44:06.898Z,16.13
2022-12-25T03:47:31.961Z,15.70
2022-12-25T03:50:53.172Z,16.98
2022-12-25T03:54:14.700Z,14.60
2022-12-25T03:57:35.672Z,15.83
2022-12-25T04:00:56.729Z,15.43
2022-12-25T04:04:17.264Z,13.90
2022-12-25T04:07:37.724Z,14.25
2022-12-25T04:10:58.341Z,14.13
2022-12-25T04:14:18.663Z,14.02
2022-12-25T04:17:39.565Z,13.75
2022-12-25T04:21:00.222Z,12.33
2022-12-25T04:24:20.963Z,11.70
2022-12-25T04:27:41.875Z,12.02
2022-12-25T04:31:02.721Z,12.33
2022-12-25T04:34:24.439Z,12.48
2022-12-25T04:37:26.792Z,12.90
2022-12-25T04:40:28.825Z,12.38
2022-12-25T04:43:30.803Z,12.98
2022-12-25T04:46:33.016Z,13.48
2022-12-25T04:49:35.556Z,13.07
2022-12-25T04:52:38.217Z,12.37
2022-12-25T04:55:40.209Z,12.98
2022-12-25T04:58:42.760Z,11.63
2022-12-25T05:01:45.197Z,12.27
2022-12-25T05:04:47.505Z,12.65
2022-12-25T05:07:49.465Z,13.05
2022-12-25T05:10:51.932Z,12.43
2022-12-25T05:13:53.905Z,13.60
2022-12-25T05:16:56.161Z,13.45
2022-12-25T05:20:01.817Z,13.93
2022-12-25T05:23:04.004Z,14.97
2022-12-25T05:26:06.679Z,17.60
2022-12-25T05:29:08.801Z,17.80
2022-12-25T05:32:11.629Z,16.63
2022-12-25T05:35:13.729Z,16.33
2022-12-25T05:38:15.729Z,15.15
2022-12-25T05:41:18.041Z,15.27
2022-12-25T05:44:20.560Z,13.73
2022-12-25T05:47:22.608Z,12.75
2022-12-25T05:50:24.771Z,13.75
2022-12-25T05:53:38.888Z,12.93
2022-12-25T05:56:40.955Z,12.75
2022-12-25T05:59:42.955Z,12.02
2022-12-25T06:02:45.772Z,11.37
2022-12-25T06:05:48.206Z,11.85
2022-12-25T06:08:50.165Z,12.95
2022-12-25T06:11:52.165Z,13.43
2022-12-25T06:14:54.153Z,13.25
2022-12-25T06:17:56.522Z,17.13
2022-12-25T06:20:58.907Z,16.83
2022-12-25T06:24:01.461Z,15.80
2022-12-25T06:27:04.015Z,15.88
2022-12-25T06:30:06.612Z,15.68
2022-12-25T06:33:08.779Z,16.93
2022-12-25T06:36:11.638Z,18.02
2022-12-25T06:39:13.660Z,18.27
2022-12-25T06:42:15.669Z,18.65
2022-12-25T06:45:18.076Z,16.95
2022-12-25T06:48:20.478Z,19.02
2022-12-25T06:51:23.523Z,18.58
2022-12-25T06:54:25.878Z,17.47
2022-12-25T06:57:27.904Z,18.83
2022-12-25T07:00:29.890Z,21.05
2022-12-25T07:03:31.919Z,21.53
2022-12-25T07:06:34.447Z,20.52
2022-12-25T07:09:38.885Z,21.40
2022-12-25T07:12:41.553Z,23.08
2022-12-25T07:15:43.516Z,23.73
2022-12-25T07:18:45.780Z,23.85
2022-12-25T07:21:47.908Z,21.30
2022-12-25T07:24:49.918Z,21.37
2022-12-25T07:27:52.013Z,20.88
2022-12-25T07:30:54.585Z,16.80
2022-12-25T07:33:56.526Z,16.90
2022-12-25T07:36:59.022Z,16.98
2022-12-25T07:40:01.093Z,16.55
2022-12-25T07:43:03.120Z,18.80
2022-12-25T07:46:05.462Z,17.58
2022-12-25T07:49:07.580Z,18.73
2022-12-25T07:52:09.696Z,19.40
2022-12-25T07:55:11.720Z,25.37
2022-12-25T07:58:16.061Z,23.65
2022-12-25T08:01:22.971Z,31.55
2022-12-25T08:04:25.517Z,46.50
2022-12-25T08:07:27.541Z,35.03
2022-12-25T08:10:29.516Z,31.45
2022-12-25T08:13:32.118Z,28.75
2022-12-25T08:16:34.320Z,29.77
2022-12-25T08:19:36.346Z,28.65
2022-12-25T08:22:38.250Z,27.85
2022-12-25T08:25:40.777Z,25.27
2022-12-25T08:28:42.852Z,26.20
2022-12-25T08:31:46.660Z,27.42
2022-12-25T08:34:49.393Z,29.23
2022-12-25T08:37:51.368Z,28.00
2022-12-25T08:40:53.661Z,27.88
2022-12-25T08:43:55.664Z,25.75
2022-12-25T08:46:57.657Z,26.13
2022-12-25T08:49:59.633Z,27.52
2022-12-25T08:53:02.513Z,28.77
2022-12-25T08:56:05.060Z,25.77
2022-12-25T08:59:07.029Z,26.60
2022-12-25T09:02:09.856Z,32.22
2022-12-25T09:05:12.347Z,35.35
2022-12-25T09:08:14.351Z,31.90
2022-12-25T09:11:16.615Z,25.65
2022-12-25T09:14:18.849Z,21.05
2022-12-25T09:17:21.255Z,19.63
2022-12-25T09:20:23.636Z,17.73
2022-12-25T09:23:32.035Z,21.42
2022-12-25T09:26:34.057Z,16.70
2022-12-25T09:29:36.527Z,18.70
2022-12-25T09:32:40.410Z,20.77
2022-12-25T09:35:42.422Z,23.20
2022-12-25T09:38:44.543Z,22.30
2022-12-25T09:41:56.708Z,21.70
2022-12-25T09:44:59.739Z,19.85
2022-12-25T09:48:02.280Z,19.75
2022-12-25T09:51:06.673Z,19.50
2022-12-25T09:54:18.414Z,19.97
2022-12-25T09:57:20.748Z,18.23
2022-12-25T10:00:26.187Z,18.00
2022-12-25T10:03:28.694Z,16.37
2022-12-25T10:06:34.404Z,16.53
2022-12-25T10:09:39.460Z,15.98
2022-12-25T10:12:59.592Z,16.55
2022-12-25T10:16:18.316Z,15.05
2022-12-25T10:19:35.454Z,15.80
2022-12-25T10:22:38.912Z,15.63
2022-12-25T10:25:41.297Z,15.55
2022-12-25T10:28:47.244Z,14.85
2022-12-25T10:31:50.177Z,15.60
2022-12-25T10:34:52.131Z,13.90
2022-12-25T10:38:01.794Z,14.27
2022-12-25T10:41:11.512Z,14.63
2022-12-25T10:44:21.129Z,14.27
2022-12-25T10:47:26.280Z,13.93
2022-12-25T10:50:28.788Z,14.40
2022-12-25T10:53:37.388Z,13.27
2022-12-25T10:56:39.634Z,15.20
2022-12-25T10:59:45.490Z,14.80
2022-12-25T11:02:47.873Z,14.43
2022-12-25T11:05:51.012Z,14.37
2022-12-25T11:09:02.422Z,16.52
2022-12-25T11:12:04.515Z,17.13
2022-12-25T11:15:23.609Z,15.18
2022-12-25T11:18:26.641Z,16.17
2022-12-25T11:21:29.232Z,15.73
2022-12-25T11:24:31.816Z,16.35
2022-12-25T11:27:33.828Z,14.88
2022-12-25T11:30:36.036Z,16.27
2022-12-25T11:33:39.225Z,16.10
2022-12-25T11:36:47.878Z,18.40
2022-12-25T11:39:50.257Z,16.83
2022-12-25T11:42:56.969Z,15.00
2022-12-25T11:46:04.372Z,15.02
2022-12-25T11:49:08.239Z,15.40
2022-12-25T11:52:10.381Z,14.23
2022-12-25T11:55:15.387Z,13.90
2022-12-25T11:58:22.799Z,13.23
2022-12-25T12:01:27.823Z,12.45
2022-12-25T12:04:40.339Z,12.27
2022-12-25T12:07:52.269Z,11.37
2022-12-25T12:10:57.743Z,12.30
2022-12-25T12:14:02.641Z,11.48
2022-12-25T12:17:05.213Z,11.15
2022-12-25T12:20:11.378Z,11.60
2022-12-25T12:23:14.130Z,12.93
2022-12-25T12:26:20.072Z,12.18
2022-12-25T12:29:27.034Z,11.77
2022-12-25T12:32:29.431Z,11.07
2022-12-25T12:35:32.535Z,9.60
2022-12-25T12:38:34.508Z,10.33
2022-12-25T12:41:46.496Z,8.35
2022-12-25T12:44:49.318Z,7.82
2022-12-25T12:47:51.493Z,8.13
2022-12-25T12:51:03.572Z,8.40
2022-12-25T12:54:06.656Z,8.07
2022-12-25T12:57:21.784Z,7.75
2022-12-25T13:00:23.778Z,7.90
2022-12-25T13:03:28.853Z,9.50
2022-12-25T13:07:03.258Z,9.70
2022-12-25T13:10:08.094Z,10.83
2022-12-25T13:13:15.391Z,10.35
2022-12-25T13:16:28.074Z,9.18
2022-12-25T13:19:30.266Z,9.68
2022-12-25T13:22:32.943Z,10.30
2022-12-25T13:25:35.354Z,10.93
2022-12-25T13:28:37.480Z,11.10
2022-12-25T13:31:39.699Z,9.50
2022-12-25T13:34:42.161Z,9.38
2022-12-25T13:37:44.419Z,10.97
2022-12-25T13:41:11.641Z,9.67
2022-12-25T13:44:19.503Z,10.30
2022-12-25T13:47:26.338Z,11.88
2022-12-25T13:50:29.397Z,12.57
2022-12-25T13:53:31.385Z,11.33
2022-12-25T13:56:33.448Z,12.47
2022-12-25T13:59:36.955Z,14.00
2022-12-25T14:02:39.543Z,15.15
2022-12-25T14:05:43.583Z,12.07
2022-12-25T14:08:45.800Z,12.13
2022-12-25T14:11:51.650Z,11.33
2022-12-25T14:14:53.589Z,11.20
2022-12-25T14:17:55.707Z,11.32
2022-12-25T14:21:08.157Z,13.30
2022-12-25T14:24:14.046Z,13.17
2022-12-25T14:27:26.324Z,13.63
2022-12-25T14:30:28.874Z,12.88
2022-12-25T14:33:33.025Z,10.60
2022-12-25T14:36:35.648Z,11.48
2022-12-25T14:39:37.895Z,11.57
2022-12-25T14:42:39.854Z,12.10
2022-12-25T14:45:41.838Z,11.93
2022-12-25T14:48:43.891Z,12.98
2022-12-25T14:51:45.883Z,14.10
2022-12-25T14:54:48.435Z,12.80
2022-12-25T14:57:52.580Z,11.67
2022-12-25T15:01:04.077Z,14.02
2022-12-25T15:04:13.803Z,13.52
2022-12-25T15:07:24.396Z,12.48
2022-12-25T15:13:54.567Z,12.53
2022-12-25T15:16:57.478Z,12.43
2022-12-25T15:19:59.964Z,17.95
2022-12-25T15:23:19.294Z,18.33
2022-12-25T15:26:22.267Z,17.77
2022-12-25T15:29:59.763Z,16.03
2022-12-25T15:32:46.979Z,16.40
2022-12-25T15:35:49.144Z,16.02
2022-12-25T15:38:51.269Z,17.92
2022-12-25T15:42:11.616Z,22.30
2022-12-25T15:45:20.964Z,25.80
2022-12-25T15:48:22.984Z,37.72
2022-12-25T15:51:24.960Z,45.72
2022-12-25T15:54:27.001Z,41.03
2022-12-25T15:57:28.897Z,74.40
2022-12-25T16:00:31.282Z,65.23
2022-12-25T16:03:33.402Z,63.80
2022-12-25T16:06:35.390Z,66.70
2022-12-25T16:09:37.589Z,52.45
2022-12-25T16:12:43.458Z,26.20
2022-12-25T16:15:46.040Z,26.03
2022-12-25T16:18:48.160Z,25.08
2022-12-25T16:21:50.236Z,23.25
2022-12-25T16:24:52.760Z,23.05
2022-12-25T16:27:54.724Z,25.90
2022-12-25T16:30:56.822Z,26.03
2022-12-25T16:33:58.856Z,26.38
2022-12-25T16:37:01.341Z,28.17
2022-12-25T16:40:03.445Z,26.95
2022-12-25T16:43:05.896Z,30.00
2022-12-25T16:46:11.604Z,27.50
2022-12-25T16:49:14.025Z,22.73
2022-12-25T16:52:16.048Z,21.00
2022-12-25T16:55:18.084Z,19.15
2022-12-25T16:58:20.064Z,18.00
2022-12-25T17:01:22.976Z,16.87
2022-12-25T17:04:25.399Z,16.58
2022-12-25T17:07:27.996Z,16.65
2022-12-25T17:10:30.004Z,18.52
2022-12-25T17:13:32.378Z,17.90
2022-12-25T17:16:35.101Z,19.80
2022-12-25T17:19:38.156Z,16.85
2022-12-25T17:22:40.473Z,17.05
2022-12-25T17:25:42.519Z,17.45
2022-12-25T17:28:45.023Z,17.57
2022-12-25T17:31:47.430Z,17.53
2022-12-25T17:34:49.592Z,16.67
2022-12-25T17:37:52.038Z,17.88
2022-12-25T17:40:58.069Z,17.00
2022-12-25T17:44:00.141Z,15.67
2022-12-25T17:47:02.199Z,18.53
2022-12-25T17:50:04.989Z,16.23
2022-12-25T17:53:07.319Z,18.40
2022-12-25T17:56:09.845Z,18.08
2022-12-25T17:59:17.902Z,17.63
2022-12-25T18:02:20.391Z,19.10
2022-12-25T18:05:22.401Z,15.73
2022-12-25T18:08:24.795Z,16.52
2022-12-25T18:11:33.788Z,16.92
2022-12-25T18:14:38.879Z,16.43
2022-12-25T18:17:41.079Z,15.13
2022-12-25T18:20:43.464Z,14.45
2022-12-25T18:23:46.552Z,14.20
2022-12-25T18:26:49.229Z,13.98
2022-12-25T18:29:52.906Z,12.73
2022-12-25T18:32:55.254Z,12.97
2022-12-25T18:35:57.757Z,13.20
2022-12-25T18:39:00.269Z,15.57
2022-12-25T18:42:20.988Z,12.95
2022-12-25T18:45:22.932Z,13.33
2022-12-25T18:48:24.890Z,14.57
2022-12-25T18:51:34.753Z,15.77
2022-12-25T18:54:38.756Z,16.40
2022-12-25T18:57:41.096Z,15.95
2022-12-25T19:00:43.104Z,14.13
2022-12-25T19:03:45.375Z,14.83
2022-12-25T19:06:49.332Z,15.30
2022-12-25T19:09:51.456Z,13.90
2022-12-25T19:12:53.501Z,15.00
2022-12-25T19:15:58.104Z,15.10
2022-12-25T19:19:00.231Z,15.20
2022-12-25T19:22:02.471Z,15.23
2022-12-25T19:25:04.779Z,15.27
2022-12-25T19:28:06.802Z,14.70
2022-12-25T19:31:09.323Z,14.50
2022-12-25T19:34:13.017Z,13.80
2022-12-25T19:37:15.321Z,13.88
2022-12-25T19:40:17.772Z,14.30
2022-12-25T19:43:19.777Z,13.88
2022-12-25T19:46:22.731Z,13.63
2022-12-25T19:49:24.977Z,14.50
2022-12-25T19:52:27.380Z,12.85
2022-12-25T19:55:31.654Z,11.95
2022-12-25T19:58:33.700Z,12.68
2022-12-25T20:01:35.734Z,11.77
2022-12-25T20:04:38.171Z,13.17
2022-12-25T20:07:40.123Z,12.80
2022-12-25T20:10:43.801Z,11.45
2022-12-25T20:13:46.230Z,10.77
2022-12-25T20:16:48.320Z,10.20
2022-12-25T20:19:50.724Z,10.33
2022-12-25T20:22:52.767Z,10.57
2022-12-25T20:25:59.691Z,10.07
2022-12-25T20:29:03.224Z,8.50
2022-12-25T20:32:06.442Z,8.30
2022-12-25T20:35:09.315Z,8.40
2022-12-25T20:38:11.696Z,8.75
2022-12-25T20:41:30.577Z,8.98
2022-12-25T20:44:32.798Z,10.23
2022-12-25T20:47:35.001Z,10.20
2022-12-25T20:50:36.941Z,9.73
2022-12-25T20:53:39.079Z,9.38
2022-12-25T20:56:41.215Z,8.60
2022-12-25T20:59:43.409Z,8.75
2022-12-25T21:02:45.586Z,7.87
2022-12-25T21:05:54.233Z,9.07
2022-12-25T21:08:56.632Z,8.73
2022-12-25T21:11:59.134Z,8.38
2022-12-25T21:15:01.100Z,8.93
2022-12-25T21:18:03.970Z,9.10
2022-12-25T21:21:07.556Z,8.73
2022-12-25T21:24:10.536Z,8.98
2022-12-25T21:27:13.188Z,9.20
2022-12-25T21:30:16.102Z,9.20
2022-12-25T21:33:36.709Z,8.33
2022-12-25T21:36:39.993Z,8.97
2022-12-25T21:39:41.963Z,8.95
2022-12-25T21:42:46.167Z,9.52
2022-12-25T21:45:48.301Z,9.93
2022-12-25T21:48:50.369Z,8.97
2022-12-25T21:52:07.863Z,9.10
2022-12-25T21:55:09.892Z,10.00
2022-12-25T21:58:11.915Z,8.73
2022-12-25T22:01:16.967Z,9.70
2022-12-25T22:04:20.534Z,9.17
2022-12-25T22:07:22.604Z,10.00
2022-12-25T22:10:24.666Z,10.95
2022-12-25T22:13:45.413Z,11.07
2022-12-25T22:17:06.691Z,11.93
2022-12-25T22:20:10.133Z,11.53
2022-12-25T22:23:14.430Z,11.83
2022-12-25T22:26:20.779Z,12.60
2022-12-25T22:29:23.244Z,12.85
2022-12-25T22:32:25.889Z,14.02
2022-12-25T22:35:27.921Z,12.80
2022-12-25T22:38:30.442Z,13.13
2022-12-25T22:41:33.885Z,14.13
2022-12-25T22:44:36.049Z,14.65
2022-12-25T22:47:38.035Z,15.60
2022-12-25T22:50:40.392Z,16.27
2022-12-25T22:53:42.357Z,16.57
2022-12-25T22:56:44.635Z,15.68
2022-12-25T22:59:46.671Z,15.98
2022-12-25T23:02:48.976Z,15.85
2022-12-25T23:05:55.102Z,16.53
2022-12-25T23:08:57.586Z,17.10
2022-12-25T23:11:59.566Z,16.80
2022-12-25T23:15:01.527Z,16.27
2022-12-25T23:18:28.908Z,16.77
2022-12-25T23:21:49.366Z,17.23
2022-12-25T23:25:10.400Z,16.65
2022-12-25T23:28:12.303Z,17.48
2022-12-25T23:31:14.401Z,17.47
2022-12-25T23:34:16.377Z,17.30
2022-12-25T23:37:18.833Z,18.23
2022-12-25T23:40:20.890Z,16.73
2022-12-25T23:43:23.003Z,19.43
2022-12-25T23:46:25.261Z,18.05
2022-12-25T23:49:27.693Z,18.17
2022-12-25T23:52:30.113Z,20.52
2022-12-25T23:55:32.996Z,18.92
2022-12-25T23:58:35.097Z,19.77
